createdAt,value
2023-02-24T00:18:24.282Z,10.20
2023-02-24T00:48:27.284Z,8.77
2023-02-24T01:18:30.221Z,11.38
2023-02-24T01:48:33.177Z,12.05
2023-02-24T02:18:45.661Z,13.13
2023-02-24T02:48:51.291Z,14.35
2023-02-24T03:18:57.336Z,14.40
2023-02-24T03:49:05.986Z,12.82
2023-02-24T04:19:13.773Z,12.90
2023-02-24T05:19:20.725Z,13.25
2023-02-24T05:49:25.294Z,13.88
2023-02-24T06:19:28.275Z,10.35
2023-02-24T06:49:31.277Z,9.98
2023-02-24T07:19:34.422Z,9.85
2023-02-24T07:49:40.183Z,10.02
2023-02-24T08:19:43.223Z,12.15
2023-02-24T08:49:47.075Z,12.40
2023-02-24T09:19:50.913Z,11.88
2023-02-24T09:49:56.154Z,7.85
2023-02-24T10:20:00.914Z,7.65
2023-02-24T10:50:05.704Z,5.20
2023-02-24T11:20:19.244Z,5.15
2023-02-24T11:50:31.077Z,5.60
2023-02-24T12:20:38.252Z,5.80
2023-02-24T12:50:47.868Z,4.53
2023-02-24T13:21:02.531Z,4.93
2023-02-24T13:51:19.965Z,4.28
2023-02-24T14:21:25.392Z,3.28
2023-02-24T14:51:33.081Z,3.30
2023-02-24T15:21:40.983Z,4.10
2023-02-24T15:51:45.620Z,3.10
2023-02-24T16:21:48.621Z,4.60
2023-02-24T16:51:52.797Z,4.82
2023-02-24T17:21:55.894Z,3.95
2023-02-24T17:51:59.543Z,5.43
2023-02-24T18:22:02.561Z,6.25
2023-02-24T18:52:05.599Z,7.80
2023-02-24T19:22:09.761Z,6.93
2023-02-24T19:52:12.754Z,7.55
2023-02-24T20:22:15.846Z,8.65
2023-02-24T21:22:22.469Z,4.05
2023-02-24T21:52:25.461Z,4.22
2023-02-24T22:22:28.954Z,4.85
2023-02-24T22:52:32.121Z,2.90
2023-02-24T23:22:35.102Z,2.63
2023-02-24T23:52:38.017Z,4.10
